sensor_id;sensor_type;location;lat;lon;timestamp;temperature;humidity
47813;DHT22;34221;45.296;9.516;2023-04-06T00:00:02;7.40;58.50
47813;DHT22;34221;45.296;9.516;2023-04-06T00:00:24;7.40;57.90
47813;DHT22;34221;45.296;9.516;2023-04-06T00:00:39;7.40;63.40
47813;DHT22;34221;45.296;9.516;2023-04-06T00:00:54;7.30;59.90
47813;DHT22;34221;45.296;9.516;2023-04-06T00:01:09;7.40;57.40
47813;DHT22;34221;45.296;9.516;2023-04-06T00:01:25;7.30;59.10
47813;DHT22;34221;45.296;9.516;2023-04-06T00:01:40;7.40;63.10
47813;DHT22;34221;45.296;9.516;2023-04-06T00:01:55;7.40;65.40
47813;DHT22;34221;45.296;9.516;2023-04-06T00:02:10;7.40;65.90
47813;DHT22;34221;45.296;9.516;2023-04-06T00:02:25;7.40;66.10
47813;DHT22;34221;45.296;9.516;2023-04-06T00:03:00;7.40;64.90
47813;DHT22;34221;45.296;9.516;2023-04-06T00:03:15;7.40;65.30
47813;DHT22;34221;45.296;9.516;2023-04-06T00:03:30;7.40;66.70
47813;DHT22;34221;45.296;9.516;2023-04-06T00:03:45;7.40;62.50
47813;DHT22;34221;45.296;9.516;2023-04-06T00:04:00;7.40;59.20
47813;DHT22;34221;45.296;9.516;2023-04-06T00:04:16;7.40;59.40
47813;DHT22;34221;45.296;9.516;2023-04-06T00:04:31;7.40;64.70
47813;DHT22;34221;45.296;9.516;2023-04-06T00:04:46;7.40;69.60
47813;DHT22;34221;45.296;9.516;2023-04-06T00:05:00;7.50;70.40
47813;DHT22;34221;45.296;9.516;2023-04-06T00:05:16;7.40;67.80
47813;DHT22;34221;45.296;9.516;2023-04-06T00:05:31;7.40;65.20
47813;DHT22;34221;45.296;9.516;2023-04-06T00:05:47;7.50;67.00
47813;DHT22;34221;45.296;9.516;2023-04-06T00:06:02;7.40;62.80
47813;DHT22;34221;45.296;9.516;2023-04-06T00:06:18;7.40;61.40
47813;DHT22;34221;45.296;9.516;2023-04-06T00:06:33;7.40;62.30
47813;DHT22;34221;45.296;9.516;2023-04-06T00:06:48;7.40;63.90
47813;DHT22;34221;45.296;9.516;2023-04-06T00:07:03;7.40;64.00
47813;DHT22;34221;45.296;9.516;2023-04-06T00:07:18;7.40;63.10
47813;DHT22;34221;45.296;9.516;2023-04-06T00:07:34;7.50;64.60
47813;DHT22;34221;45.296;9.516;2023-04-06T00:07:49;7.50;61.90
47813;DHT22;34221;45.296;9.516;2023-04-06T00:08:04;7.40;60.00
47813;DHT22;34221;45.296;9.516;2023-04-06T00:08:20;7.40;57.30
47813;DHT22;34221;45.296;9.516;2023-04-06T00:08:36;7.40;59.20
47813;DHT22;34221;45.296;9.516;2023-04-06T00:08:50;7.40;58.10
47813;DHT22;34221;45.296;9.516;2023-04-06T00:09:05;7.40;58.10
47813;DHT22;34221;45.296;9.516;2023-04-06T00:09:20;7.40;57.60
47813;DHT22;34221;45.296;9.516;2023-04-06T00:09:35;7.40;58.90
47813;DHT22;34221;45.296;9.516;2023-04-06T00:09:50;7.40;58.30
47813;DHT22;34221;45.296;9.516;2023-04-06T00:10:06;7.30;57.30
47813;DHT22;34221;45.296;9.516;2023-04-06T00:10:21;7.30;58.50
47813;DHT22;34221;45.296;9.516;2023-04-06T00:10:36;7.30;58.80
47813;DHT22;34221;45.296;9.516;2023-04-06T00:10:51;7.40;61.70
47813;DHT22;34221;45.296;9.516;2023-04-06T00:11:06;7.30;62.90
47813;DHT22;34221;45.296;9.516;2023-04-06T00:11:22;7.30;65.80
47813;DHT22;34221;45.296;9.516;2023-04-06T00:11:37;7.40;69.50
47813;DHT22;34221;45.296;9.516;2023-04-06T00:11:52;7.40;69.20
47813;DHT22;34221;45.296;9.516;2023-04-06T00:12:07;7.40;62.80
47813;DHT22;34221;45.296;9.516;2023-04-06T00:12:22;7.40;61.90
47813;DHT22;34221;45.296;9.516;2023-04-06T00:12:37;7.40;61.20
47813;DHT22;34221;45.296;9.516;2023-04-06T00:12:52;7.30;61.60
47813;DHT22;34221;45.296;9.516;2023-04-06T00:13:08;7.40;60.60
47813;DHT22;34221;45.296;9.516;2023-04-06T00:13:23;7.30;62.00
47813;DHT22;34221;45.296;9.516;2023-04-06T00:13:38;7.40;62.80
47813;DHT22;34221;45.296;9.516;2023-04-06T00:13:53;7.30;62.00
47813;DHT22;34221;45.296;9.516;2023-04-06T00:14:08;7.30;58.90
47813;DHT22;34221;45.296;9.516;2023-04-06T00:14:23;7.30;61.80
47813;DHT22;34221;45.296;9.516;2023-04-06T00:14:38;7.30;60.80
47813;DHT22;34221;45.296;9.516;2023-04-06T00:14:53;7.30;64.30
47813;DHT22;34221;45.296;9.516;2023-04-06T00:15:08;7.30;62.90
47813;DHT22;34221;45.296;9.516;2023-04-06T00:15:24;7.30;60.50
47813;DHT22;34221;45.296;9.516;2023-04-06T00:15:40;7.30;59.90
47813;DHT22;34221;45.296;9.516;2023-04-06T00:15:55;7.30;60.50
47813;DHT22;34221;45.296;9.516;2023-04-06T00:16:10;7.20;60.20
47813;DHT22;34221;45.296;9.516;2023-04-06T00:16:25;7.20;61.20
47813;DHT22;34221;45.296;9.516;2023-04-06T00:16:40;7.20;60.80
47813;DHT22;34221;45.296;9.516;2023-04-06T00:16:55;7.20;59.60
47813;DHT22;34221;45.296;9.516;2023-04-06T00:17:10;7.20;57.50
47813;DHT22;34221;45.296;9.516;2023-04-06T00:17:25;7.20;58.20
47813;DHT22;34221;45.296;9.516;2023-04-06T00:17:40;7.20;59.40
47813;DHT22;34221;45.296;9.516;2023-04-06T00:17:55;7.20;58.50
47813;DHT22;34221;45.296;9.516;2023-04-06T00:18:10;7.20;63.00
47813;DHT22;34221;45.296;9.516;2023-04-06T00:18:25;7.10;61.90
47813;DHT22;34221;45.296;9.516;2023-04-06T00:18:41;7.10;61.50
47813;DHT22;34221;45.296;9.516;2023-04-06T00:18:56;7.10;59.60
47813;DHT22;34221;45.296;9.516;2023-04-06T00:19:11;7.10;59.30
47813;DHT22;34221;45.296;9.516;2023-04-06T00:19:26;7.10;58.60
47813;DHT22;34221;45.296;9.516;2023-04-06T00:19:41;7.10;59.30
47813;DHT22;34221;45.296;9.516;2023-04-06T00:19:56;7.10;58.00
47813;DHT22;34221;45.296;9.516;2023-04-06T00:20:11;7.10;58.90
47813;DHT22;34221;45.296;9.516;2023-04-06T00:20:26;7.10;57.70
47813;DHT22;34221;45.296;9.516;2023-04-06T00:20:41;7.10;62.00
47813;DHT22;34221;45.296;9.516;2023-04-06T00:20:56;7.10;62.10
47813;DHT22;34221;45.296;9.516;2023-04-06T00:21:12;7.00;59.90
47813;DHT22;34221;45.296;9.516;2023-04-06T00:21:28;7.00;58.90
47813;DHT22;34221;45.296;9.516;2023-04-06T00:21:43;7.00;58.90
47813;DHT22;34221;45.296;9.516;2023-04-06T00:21:58;7.00;59.30
47813;DHT22;34221;45.296;9.516;2023-04-06T00:22:14;7.00;59.40
47813;DHT22;34221;45.296;9.516;2023-04-06T00:22:29;7.00;61.60
47813;DHT22;34221;45.296;9.516;2023-04-06T00:22:44;6.90;61.50
47813;DHT22;34221;45.296;9.516;2023-04-06T00:22:59;6.90;60.10
47813;DHT22;34221;45.296;9.516;2023-04-06T00:23:15;7.00;61.60
47813;DHT22;34221;45.296;9.516;2023-04-06T00:23:30;6.90;59.10
47813;DHT22;34221;45.296;9.516;2023-04-06T00:23:45;6.90;59.10
47813;DHT22;34221;45.296;9.516;2023-04-06T00:24:00;6.90;59.90
47813;DHT22;34221;45.296;9.516;2023-04-06T00:24:15;6.90;60.40
47813;DHT22;34221;45.296;9.516;2023-04-06T00:24:30;6.90;60.00
47813;DHT22;34221;45.296;9.516;2023-04-06T00:24:45;6.90;59.90
47813;DHT22;34221;45.296;9.516;2023-04-06T00:25:00;6.90;60.00
47813;DHT22;34221;45.296;9.516;2023-04-06T00:25:15;6.90;62.40
47813;DHT22;34221;45.296;9.516;2023-04-06T00:25:30;6.90;63.50
47813;DHT22;34221;45.296;9.516;2023-04-06T00:25:45;6.90;60.90
47813;DHT22;34221;45.296;9.516;2023-04-06T00:26:00;6.90;61.50
47813;DHT22;34221;45.296;9.516;2023-04-06T00:26:15;6.90;60.30
47813;DHT22;34221;45.296;9.516;2023-04-06T00:26:34;6.90;59.20
47813;DHT22;34221;45.296;9.516;2023-04-06T00:26:49;6.80;58.60
47813;DHT22;34221;45.296;9.516;2023-04-06T00:27:04;6.80;60.50
47813;DHT22;34221;45.296;9.516;2023-04-06T00:27:22;6.80;61.60
47813;DHT22;34221;45.296;9.516;2023-04-06T00:27:38;6.90;64.70
47813;DHT22;34221;45.296;9.516;2023-04-06T00:27:53;6.90;65.80
47813;DHT22;34221;45.296;9.516;2023-04-06T00:28:08;6.90;62.90
47813;DHT22;34221;45.296;9.516;2023-04-06T00:28:24;6.80;60.30
47813;DHT22;34221;45.296;9.516;2023-04-06T00:28:40;6.80;60.20
47813;DHT22;34221;45.296;9.516;2023-04-06T00:28:56;6.80;60.20
47813;DHT22;34221;45.296;9.516;2023-04-06T00:29:11;6.80;59.70
47813;DHT22;34221;45.296;9.516;2023-04-06T00:29:26;6.80;59.40
47813;DHT22;34221;45.296;9.516;2023-04-06T00:29:41;6.80;59.30
47813;DHT22;34221;45.296;9.516;2023-04-06T00:29:56;6.70;59.90
47813;DHT22;34221;45.296;9.516;2023-04-06T00:30:11;6.70;59.90
47813;DHT22;34221;45.296;9.516;2023-04-06T00:30:26;6.70;59.70
47813;DHT22;34221;45.296;9.516;2023-04-06T00:30:41;6.70;59.10
47813;DHT22;34221;45.296;9.516;2023-04-06T00:30:56;6.70;59.20
47813;DHT22;34221;45.296;9.516;2023-04-06T00:31:11;6.70;59.80
47813;DHT22;34221;45.296;9.516;2023-04-06T00:31:26;6.70;61.50
47813;DHT22;34221;45.296;9.516;2023-04-06T00:31:41;6.70;60.40
47813;DHT22;34221;45.296;9.516;2023-04-06T00:31:56;6.70;60.70
47813;DHT22;34221;45.296;9.516;2023-04-06T00:32:11;6.70;60.70
47813;DHT22;34221;45.296;9.516;2023-04-06T00:32:26;6.70;59.50
47813;DHT22;34221;45.296;9.516;2023-04-06T00:32:42;6.70;59.60
47813;DHT22;34221;45.296;9.516;2023-04-06T00:32:57;6.70;60.70
47813;DHT22;34221;45.296;9.516;2023-04-06T00:33:12;6.60;60.90
47813;DHT22;34221;45.296;9.516;2023-04-06T00:33:27;6.60;60.60
47813;DHT22;34221;45.296;9.516;2023-04-06T00:33:42;6.60;60.80
47813;DHT22;34221;45.296;9.516;2023-04-06T00:33:58;6.60;61.10
47813;DHT22;34221;45.296;9.516;2023-04-06T00:34:13;6.60;61.40
47813;DHT22;34221;45.296;9.516;2023-04-06T00:34:29;6.60;60.10
47813;DHT22;34221;45.296;9.516;2023-04-06T00:34:44;6.60;59.60
47813;DHT22;34221;45.296;9.516;2023-04-06T00:35:01;6.60;59.60
47813;DHT22;34221;45.296;9.516;2023-04-06T00:35:17;6.60;59.70
47813;DHT22;34221;45.296;9.516;2023-04-06T00:35:32;6.60;60.50
47813;DHT22;34221;45.296;9.516;2023-04-06T00:35:47;6.50;61.00
47813;DHT22;34221;45.296;9.516;2023-04-06T00:36:02;6.50;60.60
47813;DHT22;34221;45.296;9.516;2023-04-06T00:36:17;6.60;59.70
47813;DHT22;34221;45.296;9.516;2023-04-06T00:36:32;6.50;61.00
47813;DHT22;34221;45.296;9.516;2023-04-06T00:36:47;6.50;60.70
47813;DHT22;34221;45.296;9.516;2023-04-06T00:37:02;6.50;61.20
47813;DHT22;34221;45.296;9.516;2023-04-06T00:37:17;6.50;61.30
47813;DHT22;34221;45.296;9.516;2023-04-06T00:37:32;6.50;60.70
47813;DHT22;34221;45.296;9.516;2023-04-06T00:37:47;6.50;61.30
47813;DHT22;34221;45.296;9.516;2023-04-06T00:38:05;6.50;62.10
47813;DHT22;34221;45.296;9.516;2023-04-06T00:38:20;6.50;60.10
47813;DHT22;34221;45.296;9.516;2023-04-06T00:38:36;6.50;59.10
47813;DHT22;34221;45.296;9.516;2023-04-06T00:38:51;6.50;58.00
47813;DHT22;34221;45.296;9.516;2023-04-06T00:39:06;6.50;57.70
47813;DHT22;34221;45.296;9.516;2023-04-06T00:39:21;6.50;58.10
47813;DHT22;34221;45.296;9.516;2023-04-06T00:39:36;6.50;59.00
47813;DHT22;34221;45.296;9.516;2023-04-06T00:39:51;6.50;59.90
47813;DHT22;34221;45.296;9.516;2023-04-06T00:40:07;6.40;59.90
47813;DHT22;34221;45.296;9.516;2023-04-06T00:40:22;6.50;59.50
47813;DHT22;34221;45.296;9.516;2023-04-06T00:40:38;6.50;61.10
47813;DHT22;34221;45.296;9.516;2023-04-06T00:40:54;6.40;61.80
47813;DHT22;34221;45.296;9.516;2023-04-06T00:41:09;6.40;60.60
47813;DHT22;34221;45.296;9.516;2023-04-06T00:41:25;6.40;59.00
47813;DHT22;34221;45.296;9.516;2023-04-06T00:41:46;6.40;59.20
47813;DHT22;34221;45.296;9.516;2023-04-06T00:42:07;6.40;58.80
47813;DHT22;34221;45.296;9.516;2023-04-06T00:42:29;6.40;60.40
47813;DHT22;34221;45.296;9.516;2023-04-06T00:42:44;6.40;60.60
47813;DHT22;34221;45.296;9.516;2023-04-06T00:42:59;6.30;61.00
47813;DHT22;34221;45.296;9.516;2023-04-06T00:43:14;6.30;62.30
47813;DHT22;34221;45.296;9.516;2023-04-06T00:43:29;6.40;62.60
47813;DHT22;34221;45.296;9.516;2023-04-06T00:43:44;6.30;62.80
47813;DHT22;34221;45.296;9.516;2023-04-06T00:43:59;6.30;62.50
47813;DHT22;34221;45.296;9.516;2023-04-06T00:44:14;6.30;63.30
47813;DHT22;34221;45.296;9.516;2023-04-06T00:44:29;6.30;62.90
47813;DHT22;34221;45.296;9.516;2023-04-06T00:44:46;6.40;62.30
47813;DHT22;34221;45.296;9.516;2023-04-06T00:45:01;6.30;61.50
47813;DHT22;34221;45.296;9.516;2023-04-06T00:45:17;6.30;61.70
47813;DHT22;34221;45.296;9.516;2023-04-06T00:45:32;6.30;61.60
47813;DHT22;34221;45.296;9.516;2023-04-06T00:45:48;6.30;62.50
47813;DHT22;34221;45.296;9.516;2023-04-06T00:46:03;6.30;62.70
47813;DHT22;34221;45.296;9.516;2023-04-06T00:46:18;6.30;62.60
47813;DHT22;34221;45.296;9.516;2023-04-06T00:46:33;6.30;62.00
47813;DHT22;34221;45.296;9.516;2023-04-06T00:46:48;6.30;64.60
47813;DHT22;34221;45.296;9.516;2023-04-06T00:47:03;6.30;63.50
47813;DHT22;34221;45.296;9.516;2023-04-06T00:47:18;6.30;62.20
47813;DHT22;34221;45.296;9.516;2023-04-06T00:47:33;6.30;61.40
47813;DHT22;34221;45.296;9.516;2023-04-06T00:47:49;6.20;61.30
47813;DHT22;34221;45.296;9.516;2023-04-06T00:48:04;6.20;62.70
47813;DHT22;34221;45.296;9.516;2023-04-06T00:48:19;6.20;63.40
47813;DHT22;34221;45.296;9.516;2023-04-06T00:48:34;6.20;62.50
47813;DHT22;34221;45.296;9.516;2023-04-06T00:48:49;6.20;62.30
47813;DHT22;34221;45.296;9.516;2023-04-06T00:49:04;6.20;62.60
47813;DHT22;34221;45.296;9.516;2023-04-06T00:49:19;6.20;61.70
47813;DHT22;34221;45.296;9.516;2023-04-06T00:49:34;6.20;60.80
47813;DHT22;34221;45.296;9.516;2023-04-06T00:49:50;6.20;63.30
47813;DHT22;34221;45.296;9.516;2023-04-06T00:50:05;6.20;63.50
47813;DHT22;34221;45.296;9.516;2023-04-06T00:50:20;6.10;62.40
47813;DHT22;34221;45.296;9.516;2023-04-06T00:50:35;6.20;61.80
47813;DHT22;34221;45.296;9.516;2023-04-06T00:50:50;6.10;61.70
47813;DHT22;34221;45.296;9.516;2023-04-06T00:51:06;6.10;62.00
47813;DHT22;34221;45.296;9.516;2023-04-06T00:51:22;6.10;62.20
47813;DHT22;34221;45.296;9.516;2023-04-06T00:51:37;6.10;63.10
47813;DHT22;34221;45.296;9.516;2023-04-06T00:51:52;6.10;62.10
47813;DHT22;34221;45.296;9.516;2023-04-06T00:52:07;6.10;61.50
47813;DHT22;34221;45.296;9.516;2023-04-06T00:52:22;6.10;62.50
47813;DHT22;34221;45.296;9.516;2023-04-06T00:52:38;6.10;62.50
47813;DHT22;34221;45.296;9.516;2023-04-06T00:52:56;6.10;65.80
47813;DHT22;34221;45.296;9.516;2023-04-06T00:53:15;6.10;65.00
47813;DHT22;34221;45.296;9.516;2023-04-06T00:53:30;6.10;63.60
47813;DHT22;34221;45.296;9.516;2023-04-06T00:53:47;6.10;62.70
47813;DHT22;34221;45.296;9.516;2023-04-06T00:54:03;6.10;62.80
47813;DHT22;34221;45.296;9.516;2023-04-06T00:54:20;6.10;62.70
47813;DHT22;34221;45.296;9.516;2023-04-06T00:54:35;6.00;63.20
47813;DHT22;34221;45.296;9.516;2023-04-06T00:54:51;6.10;61.70
47813;DHT22;34221;45.296;9.516;2023-04-06T00:55:08;6.10;62.20
47813;DHT22;34221;45.296;9.516;2023-04-06T00:55:29;6.10;63.00
47813;DHT22;34221;45.296;9.516;2023-04-06T00:55:45;6.10;63.20
47813;DHT22;34221;45.296;9.516;2023-04-06T00:56:01;6.00;62.90
47813;DHT22;34221;45.296;9.516;2023-04-06T00:56:18;6.00;62.50
47813;DHT22;34221;45.296;9.516;2023-04-06T00:56:41;6.00;62.90
47813;DHT22;34221;45.296;9.516;2023-04-06T00:56:57;6.00;64.00
47813;DHT22;34221;45.296;9.516;2023-04-06T00:57:14;6.00;63.80
47813;DHT22;34221;45.296;9.516;2023-04-06T00:57:31;6.00;63.10
47813;DHT22;34221;45.296;9.516;2023-04-06T00:57:46;6.00;65.50
47813;DHT22;34221;45.296;9.516;2023-04-06T00:58:02;6.00;64.30
47813;DHT22;34221;45.296;9.516;2023-04-06T00:58:24;6.00;64.60
47813;DHT22;34221;45.296;9.516;2023-04-06T00:58:44;6.00;64.10
47813;DHT22;34221;45.296;9.516;2023-04-06T00:58:59;6.00;65.00
47813;DHT22;34221;45.296;9.516;2023-04-06T00:59:15;6.00;66.60
47813;DHT22;34221;45.296;9.516;2023-04-06T00:59:31;6.00;65.70
47813;DHT22;34221;45.296;9.516;2023-04-06T00:59:48;5.90;63.60
47813;DHT22;34221;45.296;9.516;2023-04-06T01:00:04;6.00;62.80
47813;DHT22;34221;45.296;9.516;2023-04-06T01:00:20;6.00;63.60
47813;DHT22;34221;45.296;9.516;2023-04-06T01:00:37;6.00;63.50
47813;DHT22;34221;45.296;9.516;2023-04-06T01:00:52;6.00;63.50
47813;DHT22;34221;45.296;9.516;2023-04-06T01:01:10;6.00;64.40
47813;DHT22;34221;45.296;9.516;2023-04-06T01:01:26;5.90;65.50
47813;DHT22;34221;45.296;9.516;2023-04-06T01:01:43;5.90;65.70
47813;DHT22;34221;45.296;9.516;2023-04-06T01:02:13;6.00;66.20
47813;DHT22;34221;45.296;9.516;2023-04-06T01:02:36;6.00;65.50
47813;DHT22;34221;45.296;9.516;2023-04-06T01:02:52;6.00;65.20
47813;DHT22;34221;45.296;9.516;2023-04-06T01:03:10;5.90;64.40
47813;DHT22;34221;45.296;9.516;2023-04-06T01:03:29;6.00;63.60
47813;DHT22;34221;45.296;9.516;2023-04-06T01:03:45;5.90;64.40
47813;DHT22;34221;45.296;9.516;2023-04-06T01:04:04;5.90;64.20
47813;DHT22;34221;45.296;9.516;2023-04-06T01:04:27;5.90;63.10
47813;DHT22;34221;45.296;9.516;2023-04-06T01:04:43;5.90;64.70
47813;DHT22;34221;45.296;9.516;2023-04-06T01:05:04;5.90;65.20
47813;DHT22;34221;45.296;9.516;2023-04-06T01:05:34;5.90;64.80
47813;DHT22;34221;45.296;9.516;2023-04-06T01:05:49;5.90;64.20
47813;DHT22;34221;45.296;9.516;2023-04-06T01:06:11;5.90;65.70
47813;DHT22;34221;45.296;9.516;2023-04-06T01:06:28;5.90;65.40
47813;DHT22;34221;45.296;9.516;2023-04-06T01:06:50;5.90;64.20
47813;DHT22;34221;45.296;9.516;2023-04-06T01:07:05;5.90;64.00
47813;DHT22;34221;45.296;9.516;2023-04-06T01:07:28;5.90;64.10
47813;DHT22;34221;45.296;9.516;2023-04-06T01:08:00;5.80;64.00
47813;DHT22;34221;45.296;9.516;2023-04-06T01:08:17;5.90;65.10
47813;DHT22;34221;45.296;9.516;2023-04-06T01:08:33;5.80;65.00
47813;DHT22;34221;45.296;9.516;2023-04-06T01:09:01;5.80;63.40
47813;DHT22;34221;45.296;9.516;2023-04-06T01:09:17;5.80;63.40
47813;DHT22;34221;45.296;9.516;2023-04-06T01:09:33;5.80;64.20
47813;DHT22;34221;45.296;9.516;2023-04-06T01:09:55;5.80;64.30
47813;DHT22;34221;45.296;9.516;2023-04-06T01:10:27;5.80;63.30
47813;DHT22;34221;45.296;9.516;2023-04-06T01:10:52;5.70;63.40
47813;DHT22;34221;45.296;9.516;2023-04-06T01:11:17;5.70;64.20
47813;DHT22;34221;45.296;9.516;2023-04-06T01:11:33;5.70;65.30
47813;DHT22;34221;45.296;9.516;2023-04-06T01:11:50;5.70;64.50
47813;DHT22;34221;45.296;9.516;2023-04-06T01:12:08;5.70;64.30
47813;DHT22;34221;45.296;9.516;2023-04-06T01:12:24;5.70;63.80
47813;DHT22;34221;45.296;9.516;2023-04-06T01:12:39;5.70;65.90
47813;DHT22;34221;45.296;9.516;2023-04-06T01:13:00;5.70;65.80
47813;DHT22;34221;45.296;9.516;2023-04-06T01:13:35;5.70;64.00
47813;DHT22;34221;45.296;9.516;2023-04-06T01:13:53;5.70;63.40
47813;DHT22;34221;45.296;9.516;2023-04-06T01:14:31;5.70;63.90
47813;DHT22;34221;45.296;9.516;2023-04-06T01:14:48;5.70;62.70
47813;DHT22;34221;45.296;9.516;2023-04-06T01:15:05;5.70;62.60
47813;DHT22;34221;45.296;9.516;2023-04-06T01:15:23;5.70;63.90
47813;DHT22;34221;45.296;9.516;2023-04-06T01:15:40;5.70;65.10
47813;DHT22;34221;45.296;9.516;2023-04-06T01:15:57;5.70;64.30
47813;DHT22;34221;45.296;9.516;2023-04-06T01:16:19;5.70;65.10
47813;DHT22;34221;45.296;9.516;2023-04-06T01:16:46;5.70;65.30
47813;DHT22;34221;45.296;9.516;2023-04-06T01:17:05;5.70;63.90
47813;DHT22;34221;45.296;9.516;2023-04-06T01:17:22;5.60;64.50
47813;DHT22;34221;45.296;9.516;2023-04-06T01:17:37;5.60;64.40
47813;DHT22;34221;45.296;9.516;2023-04-06T01:17:58;5.60;63.90
47813;DHT22;34221;45.296;9.516;2023-04-06T01:18:13;5.60;66.30
47813;DHT22;34221;45.296;9.516;2023-04-06T01:18:37;5.60;64.00
47813;DHT22;34221;45.296;9.516;2023-04-06T01:19:16;5.60;63.60
47813;DHT22;34221;45.296;9.516;2023-04-06T01:19:35;5.60;62.40
47813;DHT22;34221;45.296;9.516;2023-04-06T01:19:51;5.60;63.00
47813;DHT22;34221;45.296;9.516;2023-04-06T01:20:14;5.60;64.10
47813;DHT22;34221;45.296;9.516;2023-04-06T01:20:29;5.60;64.20
47813;DHT22;34221;45.296;9.516;2023-04-06T01:20:46;5.60;64.90
47813;DHT22;34221;45.296;9.516;2023-04-06T01:21:02;5.60;66.00
47813;DHT22;34221;45.296;9.516;2023-04-06T01:21:18;5.60;65.10
47813;DHT22;34221;45.296;9.516;2023-04-06T01:21:47;5.60;64.60
47813;DHT22;34221;45.296;9.516;2023-04-06T01:22:19;5.60;64.60
47813;DHT22;34221;45.296;9.516;2023-04-06T01:22:50;5.60;64.30
47813;DHT22;34221;45.296;9.516;2023-04-06T01:23:06;5.60;64.30
47813;DHT22;34221;45.296;9.516;2023-04-06T01:23:22;5.60;65.10
47813;DHT22;34221;45.296;9.516;2023-04-06T01:23:37;5.50;64.70
47813;DHT22;34221;45.296;9.516;2023-04-06T01:23:52;5.50;65.70
47813;DHT22;34221;45.296;9.516;2023-04-06T01:24:14;5.50;65.00
47813;DHT22;34221;45.296;9.516;2023-04-06T01:24:46;5.50;65.40
47813;DHT22;34221;45.296;9.516;2023-04-06T01:25:10;5.50;63.70
47813;DHT22;34221;45.296;9.516;2023-04-06T01:25:42;5.50;63.60
47813;DHT22;34221;45.296;9.516;2023-04-06T01:25:57;5.50;65.20
47813;DHT22;34221;45.296;9.516;2023-04-06T01:26:13;5.50;64.30
47813;DHT22;34221;45.296;9.516;2023-04-06T01:26:29;5.50;63.90
47813;DHT22;34221;45.296;9.516;2023-04-06T01:26:46;5.50;64.00
47813;DHT22;34221;45.296;9.516;2023-04-06T01:27:02;5.60;64.10
47813;DHT22;34221;45.296;9.516;2023-04-06T01:27:25;5.50;64.30
47813;DHT22;34221;45.296;9.516;2023-04-06T01:28:02;5.50;65.10
47813;DHT22;34221;45.296;9.516;2023-04-06T01:28:43;5.50;65.20
47813;DHT22;34221;45.296;9.516;2023-04-06T01:29:14;5.50;65.60
47813;DHT22;34221;45.296;9.516;2023-04-06T01:29:29;5.50;64.80
47813;DHT22;34221;45.296;9.516;2023-04-06T01:29:46;5.50;66.50
47813;DHT22;34221;45.296;9.516;2023-04-06T01:30:08;5.50;65.80
47813;DHT22;34221;45.296;9.516;2023-04-06T01:30:39;5.50;65.70
47813;DHT22;34221;45.296;9.516;2023-04-06T01:31:02;5.50;64.70
47813;DHT22;34221;45.296;9.516;2023-04-06T01:31:38;5.50;65.20
47813;DHT22;34221;45.296;9.516;2023-04-06T01:31:54;5.40;65.20
47813;DHT22;34221;45.296;9.516;2023-04-06T01:32:09;5.40;65.60
47813;DHT22;34221;45.296;9.516;2023-04-06T01:32:33;5.40;65.00
47813;DHT22;34221;45.296;9.516;2023-04-06T01:32:48;5.40;64.30
47813;DHT22;34221;45.296;9.516;2023-04-06T01:33:07;5.40;64.50
47813;DHT22;34221;45.296;9.516;2023-04-06T01:33:41;5.40;65.10
47813;DHT22;34221;45.296;9.516;2023-04-06T01:33:59;5.40;65.70
47813;DHT22;34221;45.296;9.516;2023-04-06T01:34:15;5.40;65.40
47813;DHT22;34221;45.296;9.516;2023-04-06T01:34:30;5.40;65.40
47813;DHT22;34221;45.296;9.516;2023-04-06T01:34:50;5.40;65.20
47813;DHT22;34221;45.296;9.516;2023-04-06T01:35:05;5.40;65.70
47813;DHT22;34221;45.296;9.516;2023-04-06T01:35:26;5.40;65.60
47813;DHT22;34221;45.296;9.516;2023-04-06T01:35:50;5.40;65.60
47813;DHT22;34221;45.296;9.516;2023-04-06T01:36:08;5.40;65.90
47813;DHT22;34221;45.296;9.516;2023-04-06T01:36:23;5.40;67.20
47813;DHT22;34221;45.296;9.516;2023-04-06T01:36:46;5.40;66.00
47813;DHT22;34221;45.296;9.516;2023-04-06T01:37:13;5.40;64.80
47813;DHT22;34221;45.296;9.516;2023-04-06T01:37:28;5.40;65.70
47813;DHT22;34221;45.296;9.516;2023-04-06T01:37:47;5.40;67.50
47813;DHT22;34221;45.296;9.516;2023-04-06T01:38:10;5.40;67.40
47813;DHT22;34221;45.296;9.516;2023-04-06T01:38:26;5.40;66.00
47813;DHT22;34221;45.296;9.516;2023-04-06T01:38:41;5.40;65.90
47813;DHT22;34221;45.296;9.516;2023-04-06T01:38:57;5.40;65.40
47813;DHT22;34221;45.296;9.516;2023-04-06T01:39:19;5.40;65.60
47813;DHT22;34221;45.296;9.516;2023-04-06T01:39:35;5.40;66.10
47813;DHT22;34221;45.296;9.516;2023-04-06T01:39:53;5.40;65.00
47813;DHT22;34221;45.296;9.516;2023-04-06T01:40:18;5.40;65.50
47813;DHT22;34221;45.296;9.516;2023-04-06T01:40:37;5.40;65.30
47813;DHT22;34221;45.296;9.516;2023-04-06T01:40:53;5.30;65.50
47813;DHT22;34221;45.296;9.516;2023-04-06T01:41:10;5.30;66.50
47813;DHT22;34221;45.296;9.516;2023-04-06T01:41:36;5.30;66.40
47813;DHT22;34221;45.296;9.516;2023-04-06T01:41:51;5.30;65.70
47813;DHT22;34221;45.296;9.516;2023-04-06T01:42:08;5.30;65.40
47813;DHT22;34221;45.296;9.516;2023-04-06T01:42:25;5.30;66.70
47813;DHT22;34221;45.296;9.516;2023-04-06T01:42:41;5.30;66.90
47813;DHT22;34221;45.296;9.516;2023-04-06T01:42:57;5.30;65.70
47813;DHT22;34221;45.296;9.516;2023-04-06T01:43:22;5.30;65.90
47813;DHT22;34221;45.296;9.516;2023-04-06T01:43:56;5.30;66.00
47813;DHT22;34221;45.296;9.516;2023-04-06T01:44:17;5.30;66.60
47813;DHT22;34221;45.296;9.516;2023-04-06T01:44:37;5.30;65.50
47813;DHT22;34221;45.296;9.516;2023-04-06T01:44:57;5.30;65.00
47813;DHT22;34221;45.296;9.516;2023-04-06T01:45:12;5.30;66.00
47813;DHT22;34221;45.296;9.516;2023-04-06T01:45:28;5.30;66.50
47813;DHT22;34221;45.296;9.516;2023-04-06T01:45:49;5.30;65.90
47813;DHT22;34221;45.296;9.516;2023-04-06T01:46:08;5.30;67.00
47813;DHT22;34221;45.296;9.516;2023-04-06T01:46:27;5.30;67.00
47813;DHT22;34221;45.296;9.516;2023-04-06T01:46:42;5.30;66.20
47813;DHT22;34221;45.296;9.516;2023-04-06T01:46:59;5.30;66.40
47813;DHT22;34221;45.296;9.516;2023-04-06T01:47:14;5.30;66.10
47813;DHT22;34221;45.296;9.516;2023-04-06T01:47:30;5.30;66.40
47813;DHT22;34221;45.296;9.516;2023-04-06T01:47:45;5.30;65.50
47813;DHT22;34221;45.296;9.516;2023-04-06T01:48:01;5.30;65.00
47813;DHT22;34221;45.296;9.516;2023-04-06T01:48:18;5.30;65.20
47813;DHT22;34221;45.296;9.516;2023-04-06T01:48:33;5.30;65.40
47813;DHT22;34221;45.296;9.516;2023-04-06T01:48:52;5.30;65.20
47813;DHT22;34221;45.296;9.516;2023-04-06T01:49:19;5.30;66.00
47813;DHT22;34221;45.296;9.516;2023-04-06T01:49:39;5.30;65.80
47813;DHT22;34221;45.296;9.516;2023-04-06T01:49:54;5.30;65.90
47813;DHT22;34221;45.296;9.516;2023-04-06T01:50:10;5.30;66.10
47813;DHT22;34221;45.296;9.516;2023-04-06T01:50:30;5.30;66.70
47813;DHT22;34221;45.296;9.516;2023-04-06T01:50:46;5.30;66.50
47813;DHT22;34221;45.296;9.516;2023-04-06T01:51:05;5.30;66.80
47813;DHT22;34221;45.296;9.516;2023-04-06T01:51:24;5.30;66.20
47813;DHT22;34221;45.296;9.516;2023-04-06T01:51:44;5.30;67.10
47813;DHT22;34221;45.296;9.516;2023-04-06T01:52:01;5.30;67.60